Weather History for KIGQ - April, 2014

Change the Weather History Date:

Wednesday, April 16, 2014

  Actual Average (KMDW) Record (KMDW)
Temperature  
Mean Temperature 38 °F 51 °F  
Max Temperature 50 °F 60 °F 88 °F (2002)
Min Temperature 27 °F 42 °F 26 °F (1962)
Degree Days  
Heating Degree Days 26 15  
Month to date heating degree days 280  
Since 1 July heating degree days 5603  
Cooling Degree Days 0    
Month to date cooling degree days 0  
Year to date cooling degree days 1  
Moisture  
Dew Point 23 °F    
Average Humidity 52    
Maximum Humidity 76    
Minimum Humidity 35    
Precipitation  
Precipitation 0.00 in 0.13 in 1.33 in (2006)
Month to date precipitation 1.90  
Year to date precipitation 8.62  
Sea Level Pressure  
Sea Level Pressure 30.24 in    
Wind  
Wind Speed 9 mph (SSE)    
Max Wind Speed 22 mph    
Max Gust Speed 30 mph    
Visibility 10 miles    
Events      
T = Trace of Precipitation, MM = Missing Value Source: NWS Daily Summary

Daily Weather History Graph

Daily Weather History Graph

Search for Another Location

Airport or City:

Trip Planner

Search our weather history database for the weather conditions in past years. The results will help you decide how hot, cold, wet, or windy it might be!

Date:

Astronomy

Apr. 16, 2014 Rise Set
Actual Time 6:08 AM CDT 7:31 PM CDT
Civil Twilight 5:39 AM CDT 8:00 PM CDT
Nautical Twilight 5:05 AM CDT 8:35 PM CDT
Astronomical Twilight 4:28 AM CDT 9:12 PM CDT
Moon 9:16 PM CDT (4/16) 6:55 AM CDT (4/16)
Length of Visible Light 14h 20m
Length of Day
13h 23m
Full, 98% of the Moon is Illuminated
Apr 16
Full
Apr 22
Last Quarter
Apr 29
New
May 6
First Quarter
May 14
Full

Hourly Weather History & Observations

Time (CDT) Temp. Windchill Dew Point Humidity Pressure Visibility Wind Dir Wind Speed Gust Speed Precip Events Conditions
12:15 AM 28.8 °F - 20.3 °F 71% 30.23 in 10.0 mi Calm Calm - N/A   Clear
12:35 AM 28.6 °F - 20.1 °F 71% 30.23 in 10.0 mi Calm Calm - N/A   Clear
12:55 AM 28.4 °F - 20.3 °F 72% 30.24 in 10.0 mi Calm Calm - N/A   Clear
1:15 AM 28.8 °F - 20.7 °F 72% 30.24 in 10.0 mi Calm Calm - N/A   Clear
1:35 AM 27.5 °F 23.6 °F 20.1 °F 74% 30.24 in 10.0 mi SSE 3.5 mph - N/A   Clear
1:55 AM 27.5 °F 23.6 °F 20.8 °F 76% 30.24 in 10.0 mi SE 3.5 mph - N/A   Clear
2:15 AM 28.0 °F - 20.1 °F 72% 30.25 in 10.0 mi Calm Calm - N/A   Clear
2:35 AM 27.7 °F 23.8 °F 19.9 °F 73% 30.25 in 10.0 mi SSE 3.5 mph - N/A   Clear
2:55 AM 27.9 °F 24.0 °F 19.8 °F 72% 30.26 in 10.0 mi SSE 3.5 mph - N/A   Clear
3:15 AM 27.9 °F 22.6 °F 19.6 °F 71% 30.26 in 10.0 mi SSE 4.6 mph - N/A   Clear
3:35 AM 27.5 °F 22.2 °F 19.0 °F 71% 30.27 in 10.0 mi SSE 4.6 mph - N/A   Clear
3:55 AM 27.1 °F 20.7 °F 19.0 °F 72% 30.27 in 10.0 mi SSE 5.8 mph - N/A   Clear
4:15 AM 28.4 °F 23.3 °F 19.8 °F 70% 30.27 in 10.0 mi SSE 4.6 mph - N/A   Clear
4:35 AM 28.2 °F 24.4 °F 19.9 °F 71% 30.27 in 10.0 mi SSE 3.5 mph - N/A   Clear
4:55 AM 28.4 °F 22.2 °F 20.1 °F 71% 30.27 in 10.0 mi SSE 5.8 mph - N/A   Clear
5:15 AM 28.6 °F 22.4 °F 20.3 °F 71% 30.27 in 10.0 mi SSE 5.8 mph - N/A   Clear
5:35 AM 29.1 °F 22.1 °F 19.9 °F 69% 30.28 in 10.0 mi SSE 6.9 mph - N/A   Clear
5:55 AM 29.1 °F 22.1 °F 19.9 °F 69% 30.29 in 10.0 mi SSE 6.9 mph - N/A   Clear
6:15 AM 29.8 °F 22.2 °F 19.4 °F 65% 30.29 in 10.0 mi SSE 8.1 mph - N/A   Clear
6:35 AM 29.8 °F 23.0 °F 19.6 °F 66% 30.30 in 10.0 mi SSE 6.9 mph - N/A   Clear
6:55 AM 30.4 °F 22.2 °F 20.1 °F 66% 30.30 in 10.0 mi SSE 9.2 mph - N/A   Clear
7:15 AM 31.6 °F 25.1 °F 20.5 °F 63% 30.31 in 10.0 mi SSE 6.9 mph - N/A   Clear
7:35 AM 32.4 °F 24.6 °F 20.3 °F 61% 30.32 in 10.0 mi SSE 9.2 mph - N/A   Clear
7:55 AM 33.3 °F 24.1 °F 20.7 °F 60% 30.33 in 10.0 mi South 12.7 mph - N/A   Clear
8:15 AM 34.5 °F 24.8 °F 20.5 °F 57% 30.33 in 10.0 mi South 15.0 mph - N/A   Clear
8:35 AM 35.1 °F 26.9 °F 21.6 °F 58% 30.33 in 10.0 mi South 11.5 mph 20.7 mph N/A   Clear
8:55 AM 36.5 °F 27.4 °F 21.7 °F 55% 30.33 in 10.0 mi South 15.0 mph - N/A   Clear
9:15 AM 37.9 °F 30.5 °F 23.7 °F 57% 30.33 in 10.0 mi South 11.5 mph 18.4 mph N/A   Clear
9:35 AM 39.0 °F 29.9 °F 23.5 °F 54% 30.34 in 10.0 mi South 17.3 mph 21.9 mph N/A   Clear
9:55 AM 39.6 °F 31.3 °F 24.8 °F 56% 30.33 in 10.0 mi South 15.0 mph 20.7 mph N/A   Clear
10:15 AM 40.5 °F 32.1 °F 24.3 °F 52% 30.33 in 10.0 mi SSE 16.1 mph 19.6 mph N/A   Clear
10:35 AM 42.1 °F 34.2 °F 25.7 °F 52% 30.33 in 10.0 mi SSE 16.1 mph - N/A   Clear
10:55 AM 42.8 °F 35.4 °F 26.1 °F 52% 30.32 in 10.0 mi SSE 15.0 mph 24.2 mph N/A   Clear
11:15 AM 43.3 °F 35.5 °F 26.1 °F 51% 30.32 in 10.0 mi South 17.3 mph 24.2 mph N/A   Clear
11:35 AM 43.9 °F 36.8 °F 25.3 °F 48% 30.32 in 10.0 mi South 15.0 mph 24.2 mph N/A   Clear
11:55 AM 44.4 °F 37.2 °F 25.3 °F 47% 30.31 in 10.0 mi South 16.1 mph 23.0 mph N/A   Clear
12:15 PM 45.0 °F 37.6 °F 24.6 °F 45% 30.30 in 10.0 mi SSE 17.3 mph 25.3 mph N/A   Clear
12:35 PM 46.2 °F 40.1 °F 25.5 °F 44% 30.29 in 10.0 mi SSE 13.8 mph 21.9 mph N/A   Clear
12:55 PM 46.2 °F 39.3 °F 25.7 °F 45% 30.27 in 10.0 mi SSE 17.3 mph 27.6 mph N/A   Clear
1:15 PM 46.9 °F - 25.9 °F 44% 30.26 in 10.0 mi SE 19.6 mph 26.5 mph N/A   Clear
1:35 PM 47.3 °F - 25.7 °F 43% 30.26 in 10.0 mi SSE 19.6 mph 26.5 mph N/A   Clear
1:55 PM 48.6 °F - 26.4 °F 42% 30.25 in 10.0 mi SE 19.6 mph - N/A   Clear
2:15 PM 47.8 °F - 23.2 °F 38% 30.25 in 10.0 mi SSE 18.4 mph 26.5 mph N/A   Clear
2:35 PM 48.2 °F - 24.4 °F 39% 30.24 in 10.0 mi SSE 19.6 mph 26.5 mph N/A   Clear
2:55 PM 48.6 °F - 23.7 °F 38% 30.23 in 10.0 mi South 19.6 mph 25.3 mph N/A   Clear
3:15 PM 49.5 °F - 23.9 °F 37% 30.22 in 10.0 mi South 19.6 mph 29.9 mph N/A   Clear
3:35 PM 49.6 °F - 23.2 °F 35% 30.21 in 10.0 mi SSE 19.6 mph 27.6 mph N/A   Clear
3:55 PM 50.2 °F - 23.4 °F 35% 30.19 in 10.0 mi SSE 17.3 mph 23.0 mph N/A   Clear
4:15 PM 50.2 °F - 23.4 °F 35% 30.19 in 10.0 mi South 21.9 mph 27.6 mph N/A   Clear
4:35 PM 50.2 °F - 23.7 °F 36% 30.18 in 10.0 mi SSE 18.4 mph 27.6 mph N/A   Clear
4:55 PM 50.4 °F - 24.3 °F 36% 30.18 in 10.0 mi SSE 16.1 mph 25.3 mph N/A   Clear
5:15 PM 50.5 °F - 23.4 °F 35% 30.17 in 10.0 mi SSE 18.4 mph 26.5 mph N/A   Clear
5:35 PM 50.0 °F - 23.0 °F 35% 30.17 in 10.0 mi SE 17.3 mph 26.5 mph N/A   Clear
5:55 PM 49.6 °F - 23.4 °F 36% 30.17 in 10.0 mi SSE 18.4 mph - N/A   Clear
6:15 PM 49.1 °F - 23.7 °F 37% 30.17 in 10.0 mi SSE 15.0 mph 23.0 mph N/A   Clear
6:35 PM 48.7 °F - 23.4 °F 37% 30.16 in 10.0 mi SSE 12.7 mph 23.0 mph N/A   Clear
6:55 PM 47.8 °F - 23.5 °F 39% 30.16 in 10.0 mi SE 15.0 mph 21.9 mph N/A   Clear
7:15 PM 47.3 °F - 23.9 °F 40% 30.16 in 10.0 mi SE 13.8 mph 21.9 mph N/A   Clear
7:35 PM 46.6 °F - 23.9 °F 41% 30.16 in 10.0 mi SE 15.0 mph 19.6 mph N/A   Clear
7:55 PM 46.4 °F 40.7 °F 23.7 °F 41% 30.16 in 10.0 mi SE 12.7 mph 20.7 mph N/A   Clear
8:15 PM 45.9 °F 38.8 °F 23.7 °F 42% 30.16 in 10.0 mi SE 17.3 mph 20.7 mph N/A   Clear
8:35 PM 46.0 °F 39.6 °F 23.4 °F 41% 30.17 in 10.0 mi SE 15.0 mph 20.7 mph N/A   Clear
8:55 PM 45.5 °F 39.6 °F 23.4 °F 42% 30.17 in 10.0 mi SE 12.7 mph 21.9 mph N/A   Clear
9:15 PM 45.1 °F 38.4 °F 22.8 °F 41% 30.17 in 10.0 mi SE 15.0 mph 21.9 mph N/A   Clear
9:35 PM 44.8 °F 38.3 °F 23.0 °F 42% 30.17 in 10.0 mi SE 13.8 mph 19.6 mph N/A   Clear
9:55 PM 44.4 °F 37.5 °F 23.2 °F 43% 30.17 in 10.0 mi SE 15.0 mph 19.6 mph N/A   Clear
10:15 PM 43.7 °F 36.9 °F 23.7 °F 45% 30.16 in 10.0 mi SE 13.8 mph 20.7 mph N/A   Clear
10:35 PM 43.5 °F 36.4 °F 23.7 °F 46% 30.16 in 10.0 mi SE 15.0 mph 21.9 mph N/A   Clear
10:55 PM 43.2 °F 36.2 °F 24.1 °F 47% 30.18 in 10.0 mi SSE 13.8 mph 23.0 mph N/A   Clear
11:15 PM 42.8 °F 35.8 °F 23.9 °F 47% 30.19 in 10.0 mi SSE 13.8 mph 18.4 mph N/A   Clear
11:35 PM 42.4 °F 35.3 °F 23.9 °F 48% 30.19 in 10.0 mi SSE 13.8 mph 20.7 mph N/A   Clear
11:55 PM 42.4 °F 36.1 °F 24.4 °F 49% 30.19 in 10.0 mi SSE 11.5 mph 19.6 mph N/A   Clear